Time;durP1;ratioP1;P1;durP2;ratioP2;P2;SDS_P1;SDS_P2;PMS_P1;PMS_P2;Temp;Humidity;BMP_temperature;BMP_pressure;BME280_temperature;BME280_humidity;BME280_pressure;Samples;Min_cycle;Max_cycle;Signal;HPM_P1;HPM_P2
2022/09/21 00:00:31;;;;;;;;;;;;;;;21.27;57.57;102426.34;7280242;19;152073;-58
2022/09/21 00:02:59;;;;;;;;;;;;;;;21.27;58.04;102429.16;7284551;19;152549;-58
2022/09/21 00:05:26;;;;;;;;;;;;;;;21.27;57.60;102430.00;7290266;19;152828;-59
2022/09/21 00:07:53;;;;;;;;;;;;;;;21.27;58.00;102429.16;7284970;19;151855;-58
2022/09/21 00:10:20;;;;;;;;;;;;;;;21.27;58.04;102429.16;7283550;19;155210;-58
2022/09/21 00:12:47;;;;;;;;;;;;;;;21.27;57.67;102429.16;7283112;19;153001;-58
2022/09/21 00:15:16;;;;;;;;;;;;;;;21.27;57.78;102432.81;7283578;19;153988;-58
2022/09/21 00:17:45;;;;;;;;;;;;;;;21.27;58.17;102423.53;7282906;19;152020;-58
2022/09/21 00:20:13;;;;;;;;;;;;;;;21.25;58.15;102428.59;7280375;19;153625;-58
2022/09/21 00:22:40;;;;;;;;;;;;;;;21.26;58.26;102424.63;7285310;19;152526;-58
2022/09/21 00:25:08;;;;;;;;;;;;;;;21.27;57.91;102426.34;7284720;19;153475;-59
2022/09/21 00:27:35;;;;;;;;;;;;;;;21.24;57.84;102421.28;7289149;19;153643;-58
2022/09/21 00:30:03;;;;;;;;;;;;;;;21.25;58.15;102422.97;7280499;19;153909;-59
2022/09/21 00:32:30;;;;;;;;;;;;;;;21.26;57.84;102430.25;7283279;19;153304;-58
2022/09/21 00:34:57;;;;;;;;;;;;;;;21.24;58.21;102424.94;7282100;19;151952;-58
2022/09/21 00:37:24;;;;;;;;;;;;;;;21.24;58.31;102427.75;7281080;19;153149;-59
2022/09/21 00:39:51;;;;;;;;;;;;;;;21.26;57.97;102433.06;7283593;19;153458;-59
2022/09/21 00:42:21;;;;;;;;;;;;;;;21.24;57.93;102436.19;7285172;19;152199;-58
2022/09/21 00:44:48;;;;;;;;;;;;;;;21.25;58.23;102428.59;7280131;19;152584;-58
2022/09/21 00:47:18;;;;;;;;;;;;;;;21.24;58.52;102427.75;7281518;19;153741;-58
2022/09/21 00:49:48;;;;;;;;;;;;;;;21.24;58.59;102430.56;7287784;19;151987;-58
2022/09/21 00:52:15;;;;;;;;;;;;;;;21.25;58.24;102437.03;7283828;19;153249;-58
2022/09/21 00:54:44;;;;;;;;;;;;;;;21.24;58.19;102429.72;7282582;19;152627;-58
2022/09/21 00:59:42;;;;;;;;;;;;;;;21.24;58.61;102433.38;7280881;19;153824;-58
2022/09/21 01:02:09;;;;;;;;;;;;;;;21.24;58.67;102429.72;7282933;19;152579;-58
2022/09/21 01:04:37;;;;;;;;;;;;;;;21.24;58.31;102430.56;7280478;19;152454;-58
2022/09/21 01:07:07;;;;;;;;;;;;;;;21.25;58.66;102420.16;7283232;19;153764;-58
2022/09/21 01:09:35;;;;;;;;;;;;;;;21.26;58.79;102433.06;7279238;19;153397;-58
2022/09/21 01:12:05;;;;;;;;;;;;;;;21.24;58.82;102427.75;7288483;19;152383;-58
2022/09/21 01:14:44;;;;;;;;;;;;;;;21.25;58.46;102431.41;7282380;19;152476;-58
2022/09/21 01:17:11;;;;;;;;;;;;;;;21.24;58.58;102427.75;7283219;19;153357;-58
2022/09/21 01:19:41;;;;;;;;;;;;;;;21.26;58.87;102430.25;7256941;19;155584;-58
2022/09/21 01:22:11;;;;;;;;;;;;;;;21.24;58.97;102426.91;7273610;19;152034;-58
2022/09/21 01:24:47;;;;;;;;;;;;;;;21.24;58.92;102430.56;7282170;19;152806;-58
2022/09/21 01:27:23;;;;;;;;;;;;;;;21.24;58.84;102426.91;7282322;19;152655;-58
2022/09/21 01:29:59;;;;;;;;;;;;;;;21.24;59.08;102427.75;7257470;19;154009;-59
2022/09/21 01:32:27;;;;;;;;;;;;;;;21.24;58.77;102424.94;7275954;19;152184;-58
2022/09/21 01:34:59;;;;;;;;;;;;;;;21.24;58.83;102435.34;7288559;19;152974;-58
2022/09/21 01:37:31;;;;;;;;;;;;;;;21.24;59.24;102432.53;7280000;19;151741;-59
2022/09/21 01:40:00;;;;;;;;;;;;;;;21.25;59.25;102431.41;7263232;19;153739;-59
2022/09/21 01:42:29;;;;;;;;;;;;;;;21.24;59.36;102426.91;7269126;19;152450;-59
2022/09/21 01:44:57;;;;;;;;;;;;;;;21.24;58.97;102430.56;7282730;19;152824;-59
2022/09/21 01:47:24;;;;;;;;;;;;;;;21.24;59.46;102424.94;7280826;19;153957;-58
2022/09/21 01:49:54;;;;;;;;;;;;;;;21.23;59.55;102428.88;7263312;19;153931;-59
2022/09/21 01:52:21;;;;;;;;;;;;;;;21.24;59.08;102421.28;7273345;19;152628;-59
2022/09/21 01:54:51;;;;;;;;;;;;;;;21.24;59.12;102427.75;7278663;19;152383;-59
2022/09/21 01:57:27;;;;;;;;;;;;;;;21.25;59.19;102431.41;7289304;19;152793;-59
2022/09/21 01:59:56;;;;;;;;;;;;;;;21.25;59.58;102425.78;7265448;19;156622;-59
2022/09/21 02:02:25;;;;;;;;;;;;;;;21.27;59.45;102429.16;7266682;19;153013;-58
2022/09/21 02:04:51;;;;;;;;;;;;;;;21.24;59.39;102413.69;7281350;19;152765;-59
2022/09/21 02:07:18;;;;;;;;;;;;;;;21.26;59.30;102417.06;7281323;19;153513;-58
2022/09/21 02:09:46;;;;;;;;;;;;;;;21.27;59.22;102417.91;7278335;19;152201;-59
2022/09/21 02:12:13;;;;;;;;;;;;;;;21.24;59.75;102419.31;7279910;19;153644;-59
2022/09/21 02:14:45;;;;;;;;;;;;;;;21.26;59.71;102414.25;7278193;19;155305;-58
2022/09/21 02:17:23;;;;;;;;;;;;;;;21.26;59.53;102427.44;7288825;19;152072;-58
2022/09/21 02:20:00;;;;;;;;;;;;;;;21.26;59.43;102428.31;7278405;19;153875;-59
2022/09/21 02:22:28;;;;;;;;;;;;;;;21.26;59.48;102424.63;7282150;19;152145;-59
2022/09/21 02:24:56;;;;;;;;;;;;;;;21.27;59.54;102418.75;7280262;19;153209;-58
2022/09/21 02:27:24;;;;;;;;;;;;;;;21.27;59.74;102415.09;7281335;19;153435;-58
2022/09/21 02:30:01;;;;;;;;;;;;;;;21.26;59.38;102428.31;7276452;19;154348;-59
2022/09/21 02:32:32;;;;;;;;;;;;;;;21.27;59.30;102417.91;7281064;19;153954;-58
2022/09/21 02:35:10;;;;;;;;;;;;;;;21.26;59.63;102416.22;7278503;19;154054;-58
2022/09/21 02:37:47;;;;;;;;;;;;;;;21.27;59.23;102412.28;7234652;19;156512;-58
2022/09/21 02:40:21;;;;;;;;;;;;;;;21.26;59.38;102422.69;7277838;19;157219;-58
2022/09/21 02:42:53;;;;;;;;;;;;;;;21.26;59.38;102410.59;7276623;19;152412;-58
2022/09/21 02:45:24;;;;;;;;;;;;;;;21.27;59.74;102409.47;7278491;19;152938;-58
2022/09/21 02:47:51;;;;;;;;;;;;;;;21.27;59.21;102409.47;7282390;19;154549;-59
2022/09/21 02:50:24;;;;;;;;;;;;;;;21.26;59.65;102414.25;7281628;19;151954;-58
2022/09/21 02:52:53;;;;;;;;;;;;;;;21.26;59.38;102407.78;7283072;19;153132;-58
2022/09/21 02:55:20;;;;;;;;;;;;;;;21.26;60.00;102413.41;7284311;19;153283;-58
2022/09/21 02:57:48;;;;;;;;;;;;;;;21.25;59.60;102411.72;7285426;19;152104;-58
2022/09/21 03:00:16;;;;;;;;;;;;;;;21.25;59.76;102400.50;7282530;19;153035;-58
2022/09/21 03:02:43;;;;;;;;;;;;;;;21.25;59.82;102400.50;7289770;19;154079;-59
2022/09/21 03:05:12;;;;;;;;;;;;;;;21.25;60.07;102406.13;7287759;19;152269;-58
2022/09/21 03:07:38;;;;;;;;;;;;;;;21.26;59.46;102402.16;7285313;19;152298;-58
2022/09/21 03:10:07;;;;;;;;;;;;;;;21.25;59.69;102400.50;7285153;19;151865;-58
2022/09/21 03:15:01;;;;;;;;;;;;;;;21.26;59.66;102396.53;7283028;19;152585;-58
2022/09/21 03:17:26;;;;;;;;;;;;;;;21.26;60.06;102391.75;7287578;19;151995;-58
2022/09/21 03:19:55;;;;;;;;;;;;;;;21.26;59.61;102399.34;7284982;19;152265;-59
2022/09/21 03:22:23;;;;;;;;;;;;;;;21.26;59.92;102397.38;7286012;19;153331;-58
2022/09/21 03:24:49;;;;;;;;;;;;;;;21.27;60.02;102395.41;7292169;19;152067;-58
2022/09/21 03:27:18;;;;;;;;;;;;;;;21.27;60.10;102398.22;7282860;19;152952;-59
2022/09/21 03:29:45;;;;;;;;;;;;;;;21.26;59.96;102396.53;7283155;19;152350;-58
2022/09/21 03:32:13;;;;;;;;;;;;;;;21.26;60.05;102400.19;7284537;19;153925;-59
2022/09/21 03:34:41;;;;;;;;;;;;;;;21.26;60.06;102400.19;7285793;19;152166;-59
2022/09/21 03:37:09;;;;;;;;;;;;;;;21.26;60.25;102394.56;7286277;19;151933;-59
2022/09/21 03:39:35;;;;;;;;;;;;;;;21.27;60.06;102395.41;7284620;19;153688;-59
2022/09/21 03:42:03;;;;;;;;;;;;;;;21.26;59.97;102390.91;7285436;19;152840;-59
2022/09/21 03:44:29;;;;;;;;;;;;;;;21.27;60.19;102399.06;7282365;19;153054;-59
2022/09/21 03:46:57;;;;;;;;;;;;;;;21.26;60.12;102400.19;7288891;19;151794;-59
2022/09/21 03:49:24;;;;;;;;;;;;;;;21.26;59.96;102402.16;7284422;19;152216;-59
2022/09/21 03:51:50;;;;;;;;;;;;;;;21.26;60.22;102393.72;7287006;19;153500;-59
2022/09/21 03:54:17;;;;;;;;;;;;;;;21.26;60.06;102396.53;7284373;19;152961;-59
2022/09/21 03:56:43;;;;;;;;;;;;;;;21.27;59.79;102401.88;7282890;19;152204;-58
2022/09/21 03:59:11;;;;;;;;;;;;;;;21.28;60.11;102391.47;7285191;19;152452;-58
2022/09/21 04:06:33;;;;;;;;;;;;;;;21.27;60.49;102381.34;7285345;19;152166;-59
2022/09/21 04:09:01;;;;;;;;;;;;;;;21.27;60.56;102389.78;7291630;19;152377;-58
2022/09/21 04:11:28;;;;;;;;;;;;;;;21.28;60.34;102391.47;7279624;19;153428;-58
2022/09/21 04:13:55;;;;;;;;;;;;;;;21.27;60.44;102384.16;7285039;19;154228;-58
2022/09/21 04:16:23;;;;;;;;;;;;;;;21.27;60.57;102381.34;7280341;19;153432;-59
2022/09/21 04:18:50;;;;;;;;;;;;;;;21.26;60.05;102380.50;7284055;19;151814;-59
2022/09/21 04:21:17;;;;;;;;;;;;;;;21.27;59.84;102372.94;7282804;19;153139;-59
2022/09/21 04:23:44;;;;;;;;;;;;;;;21.27;60.29;102367.31;7284833;19;152404;-59
2022/09/21 04:26:21;;;;;;;;;;;;;;;21.26;60.28;102371.22;7284392;19;153265;-59
2022/09/21 04:28:47;;;;;;;;;;;;;;;21.26;60.44;102372.06;7291570;19;152743;-59
2022/09/21 04:31:14;;;;;;;;;;;;;;;21.27;60.41;102370.13;7278239;19;151904;-59
2022/09/21 04:33:41;;;;;;;;;;;;;;;21.26;60.22;102377.69;7282381;19;152285;-59
2022/09/21 04:36:08;;;;;;;;;;;;;;;21.25;60.23;102369.56;7284316;19;151938;-59
2022/09/21 04:38:35;;;;;;;;;;;;;;;21.26;60.22;102371.22;7284380;19;152226;-59
2022/09/21 04:41:02;;;;;;;;;;;;;;;21.24;60.59;102368.72;7282822;19;152289;-59
2022/09/21 04:43:28;;;;;;;;;;;;;;;21.22;60.46;102370.94;7284521;19;151670;-58
2022/09/21 04:45:55;;;;;;;;;;;;;;;21.24;60.59;102371.53;7281600;19;152032;-58
2022/09/21 04:48:22;;;;;;;;;;;;;;;21.24;60.50;102371.53;7283874;19;152811;-58
2022/09/21 04:50:49;;;;;;;;;;;;;;;21.25;60.59;102370.41;7288699;19;152269;-58
2022/09/21 04:53:16;;;;;;;;;;;;;;;21.24;60.28;102365.91;7283853;19;152416;-58
2022/09/21 04:55:44;;;;;;;;;;;;;;;21.27;60.38;102370.13;7283552;19;151911;-58
2022/09/21 04:58:10;;;;;;;;;;;;;;;21.27;60.25;102372.94;7283898;19;152081;-58
2022/09/21 05:00:37;;;;;;;;;;;;;;;21.26;60.66;102368.41;7277473;19;152852;-59
2022/09/21 05:03:04;;;;;;;;;;;;;;;21.26;60.46;102362.78;7282360;19;152381;-59
2022/09/21 05:05:30;;;;;;;;;;;;;;;21.24;60.79;102362.25;7281477;19;151998;-59
2022/09/21 05:07:57;;;;;;;;;;;;;;;21.25;60.22;102358.31;7280939;19;152250;-59
2022/09/21 05:10:24;;;;;;;;;;;;;;;21.26;60.75;102362.78;7282487;19;151993;-59
2022/09/21 05:12:51;;;;;;;;;;;;;;;21.25;60.38;102366.75;7290341;19;152751;-59
2022/09/21 05:15:19;;;;;;;;;;;;;;;21.26;60.44;102365.59;7278302;19;153162;-59
2022/09/21 05:20:13;;;;;;;;;;;;;;;21.26;60.61;102371.22;7282604;19;153171;-59
2022/09/21 05:22:40;;;;;;;;;;;;;;;21.26;60.54;102363.66;7283122;19;151629;-59
2022/09/21 05:25:08;;;;;;;;;;;;;;;21.26;60.41;102366.44;7283018;19;152371;-59
2022/09/21 05:27:36;;;;;;;;;;;;;;;21.25;60.72;102363.94;7282902;19;153294;-59
2022/09/21 05:30:04;;;;;;;;;;;;;;;21.24;60.70;102359.44;7279290;19;152612;-60
2022/09/21 05:32:41;;;;;;;;;;;;;;;21.25;60.45;102369.56;7282452;19;153241;-59
2022/09/21 05:35:13;;;;;;;;;;;;;;;21.26;60.51;102372.06;7289145;19;152960;-58
2022/09/21 05:37:41;;;;;;;;;;;;;;;21.24;60.58;102365.91;7283758;19;152877;-58
2022/09/21 05:40:09;;;;;;;;;;;;;;;21.25;60.63;102372.38;7281531;19;154380;-58
2022/09/21 05:42:36;;;;;;;;;;;;;;;21.25;61.03;102378.00;7282705;19;152187;-58
2022/09/21 05:45:04;;;;;;;;;;;;;;;21.28;60.64;102374.63;7281124;19;152768;-58
2022/09/21 05:47:40;;;;;;;;;;;;;;;21.27;60.43;102379.41;7280737;19;152499;-58
2022/09/21 05:50:10;;;;;;;;;;;;;;;21.26;60.82;102372.06;7281250;19;151732;-58
2022/09/21 05:52:43;;;;;;;;;;;;;;;21.26;60.61;102383.31;7283446;19;152632;-58
2022/09/21 05:55:18;;;;;;;;;;;;;;;21.25;60.74;102383.63;7279885;19;152617;-58
2022/09/21 05:57:52;;;;;;;;;;;;;;;21.24;60.74;102376.31;7290319;19;152070;-58
2022/09/21 06:00:21;;;;;;;;;;;;;;;21.24;60.61;102379.13;7276628;19;152731;-58
2022/09/21 06:02:57;;;;;;;;;;;;;;;21.27;60.73;102378.53;7281874;19;152266;-58
2022/09/21 06:05:25;;;;;;;;;;;;;;;21.26;60.39;102379.66;7282529;19;152171;-58
2022/09/21 06:07:52;;;;;;;;;;;;;;;21.24;60.52;102377.16;7280994;19;153260;-58
2022/09/21 06:10:19;;;;;;;;;;;;;;;21.24;60.35;102379.13;7281647;19;153377;-58
2022/09/21 06:12:46;;;;;;;;;;;;;;;21.22;60.86;102385.00;7279979;19;152358;-58
2022/09/21 06:15:14;;;;;;;;;;;;;;;21.23;60.28;102392.31;7276982;19;152816;-58
2022/09/21 06:17:41;;;;;;;;;;;;;;;21.24;60.98;102391.22;7287518;19;152928;-57
2022/09/21 06:20:08;;;;;;;;;;;;;;;21.30;60.91;102394.88;7282888;19;153257;-58
2022/09/21 06:22:35;;;;;;;;;;;;;;;21.27;60.86;102390.63;7289841;19;152110;-58
2022/09/21 06:25:01;;;;;;;;;;;;;;;21.29;60.95;102396.84;7286334;19;153571;-58
2022/09/21 06:27:28;;;;;;;;;;;;;;;21.30;61.34;102397.69;7285869;19;154224;-58
2022/09/21 06:29:55;;;;;;;;;;;;;;;21.33;61.20;102399.09;7284553;19;153647;-58
2022/09/21 06:32:22;;;;;;;;;;;;;;;21.35;61.61;102400.47;7286101;19;153695;-58
2022/09/21 06:34:48;;;;;;;;;;;;;;;21.39;61.45;102401.63;7287284;19;153355;-56
2022/09/21 06:37:14;;;;;;;;;;;;;;;21.42;61.93;102398.25;7287214;19;152619;-56
2022/09/21 06:39:41;;;;;;;;;;;;;;;21.44;61.42;102390.38;7293557;19;153813;-57
2022/09/21 06:42:08;;;;;;;;;;;;;;;21.53;61.28;102401.94;7286104;19;152214;-56
2022/09/21 06:44:39;;;;;;;;;;;;;;;21.54;59.93;102403.59;7284809;19;152707;-57
2022/09/21 06:47:08;;;;;;;;;;;;;;;21.45;57.54;102408.09;7283711;19;152853;-57
2022/09/21 06:49:35;;;;;;;;;;;;;;;21.39;56.57;102401.63;7286363;19;154205;-57
2022/09/21 06:52:08;;;;;;;;;;;;;;;21.37;55.17;102403.88;7287288;19;153417;-57
2022/09/21 06:54:36;;;;;;;;;;;;;;;21.40;54.09;102399.66;7284961;19;152439;-57
2022/09/21 06:57:03;;;;;;;;;;;;;;;21.41;53.71;102407.81;7284802;19;152362;-57
2022/09/21 06:59:34;;;;;;;;;;;;;;;21.45;53.25;102405.28;7285106;19;152101;-57
2022/09/21 07:02:07;;;;;;;;;;;;;;;21.45;52.53;102406.13;7291105;19;154006;-57
2022/09/21 07:04:36;;;;;;;;;;;;;;;21.45;52.38;102408.94;7288319;19;152964;-57
2022/09/21 07:07:14;;;;;;;;;;;;;;;21.45;52.09;102403.31;7287129;19;152692;-57
2022/09/21 07:09:41;;;;;;;;;;;;;;;21.45;51.67;102408.94;7284316;19;154535;-57
2022/09/21 07:12:28;;;;;;;;;;;;;;;21.42;51.14;102405.84;7286304;19;152772;-57
2022/09/21 07:14:55;;;;;;;;;;;;;;;21.46;52.54;102406.97;7283104;19;153382;-57
2022/09/21 07:17:23;;;;;;;;;;;;;;;21.45;52.90;102403.31;7285705;19;152224;-57
2022/09/21 07:19:49;;;;;;;;;;;;;;;21.47;53.76;102405.84;7287332;19;152946;-56
2022/09/21 07:22:16;;;;;;;;;;;;;;;21.49;54.07;102407.25;7285486;19;154075;-56
2022/09/21 07:24:43;;;;;;;;;;;;;;;21.51;54.23;102398.56;7294144;19;153392;-56
2022/09/21 07:27:10;;;;;;;;;;;;;;;21.53;54.21;102405.56;7232656;19;163876;-56
2022/09/21 07:29:37;;;;;;;;;;;;;;;21.55;54.41;102396.84;7276829;19;151991;-56
2022/09/21 07:32:05;;;;;;;;;;;;;;;21.56;54.54;102404.19;7278164;19;152541;-56
2022/09/21 07:34:40;;;;;;;;;;;;;;;21.58;54.85;102405.56;7281059;19;152726;-56
2022/09/21 07:37:07;;;;;;;;;;;;;;;21.59;54.59;102407.28;7284261;19;152625;-56
2022/09/21 07:39:37;;;;;;;;;;;;;;;21.62;54.97;102403.88;7284246;19;152407;-56
2022/09/21 07:42:05;;;;;;;;;;;;;;;21.67;54.77;102408.66;7280575;19;153618;-56
2022/09/21 07:44:33;;;;;;;;;;;;;;;21.65;54.77;102400.53;7283238;19;152522;-56
2022/09/21 07:47:02;;;;;;;;;;;;;;;21.67;54.85;102403.03;7287836;19;152662;-56
2022/09/21 07:49:29;;;;;;;;;;;;;;;21.68;54.44;102404.75;7284588;19;152252;-56
2022/09/21 07:51:56;;;;;;;;;;;;;;;21.68;54.83;102407.56;7281077;19;153639;-56
2022/09/21 07:54:30;;;;;;;;;;;;;;;21.70;54.54;102402.50;7282386;19;155496;-56
2022/09/21 07:59:36;;;;;;;;;;;;;;;21.72;54.61;102398.28;7281571;19;152839;-56
2022/09/21 08:02:03;;;;;;;;;;;;;;;21.75;54.34;102399.69;7281258;19;154460;-56
2022/09/21 08:07:07;;;;;;;;;;;;;;;21.76;54.50;102404.16;7285542;19;153499;-56
2022/09/21 08:09:33;;;;;;;;;;;;;;;21.79;54.57;102402.78;7291615;19;153190;-56
2022/09/21 08:12:00;;;;;;;;;;;;;;;21.78;54.35;102409.53;7283225;19;152717;-56
2022/09/21 08:14:28;;;;;;;;;;;;;;;21.79;54.54;102408.41;7284096;19;154081;-56
2022/09/21 08:16:54;;;;;;;;;;;;;;;21.80;54.66;102413.75;7283395;19;152301;-56
2022/09/21 08:19:24;;;;;;;;;;;;;;;21.82;54.61;102408.69;7284356;19;152060;-56
2022/09/21 08:21:51;;;;;;;;;;;;;;;21.82;54.46;102405.88;7284521;19;154489;-56
2022/09/21 08:24:24;;;;;;;;;;;;;;;21.83;54.87;102412.34;7285681;19;152040;-56
2022/09/21 08:26:51;;;;;;;;;;;;;;;21.81;54.47;102415.44;7284174;19;152468;-56
2022/09/21 08:29:18;;;;;;;;;;;;;;;21.84;54.76;102414.03;7290864;19;153389;-56
2022/09/21 08:31:45;;;;;;;;;;;;;;;21.85;54.67;102415.72;7278696;19;153831;-56
2022/09/21 08:34:13;;;;;;;;;;;;;;;21.84;54.79;102408.41;7285312;19;153368;-56
2022/09/21 08:36:38;;;;;;;;;;;;;;;21.83;54.79;102404.75;7284835;19;152043;-56
2022/09/21 08:39:06;;;;;;;;;;;;;;;21.85;54.56;102410.09;7285898;19;153373;-56
2022/09/21 08:41:42;;;;;;;;;;;;;;;21.85;54.60;102410.09;7280508;19;154070;-56
2022/09/21 08:44:14;;;;;;;;;;;;;;;21.83;54.42;102413.19;7286224;19;153345;-56
2022/09/21 08:46:42;;;;;;;;;;;;;;;21.84;54.42;102411.22;7278836;19;152424;-56
2022/09/21 08:49:15;;;;;;;;;;;;;;;21.83;54.86;102412.34;7285066;19;153454;-56
2022/09/21 08:51:52;;;;;;;;;;;;;;;21.83;54.54;102420.78;7289516;19;152297;-56
2022/09/21 08:54:23;;;;;;;;;;;;;;;21.81;54.44;102412.63;7283806;19;152854;-56
2022/09/21 08:56:51;;;;;;;;;;;;;;;21.79;54.67;102412.06;7282934;19;153201;-56
2022/09/21 08:59:19;;;;;;;;;;;;;;;21.80;54.95;102421.34;7281666;19;152334;-56
2022/09/21 09:01:58;;;;;;;;;;;;;;;21.79;54.53;102419.66;7279452;19;154545;-56
2022/09/21 09:04:33;;;;;;;;;;;;;;;21.79;54.91;102422.47;7284075;19;151749;-56
2022/09/21 09:07:08;;;;;;;;;;;;;;;21.77;54.87;102421.91;7280757;19;151922;-56
2022/09/21 09:09:45;;;;;;;;;;;;;;;21.78;54.76;102421.63;7282635;19;153527;-56
2022/09/21 09:12:13;;;;;;;;;;;;;;;21.78;54.67;102429.22;7281514;19;154229;-55
2022/09/21 09:14:58;;;;;;;;;;;;;;;21.76;54.73;102429.50;7291925;19;152391;-56
2022/09/21 09:17:27;;;;;;;;;;;;;;;21.76;54.76;102425.88;7281787;19;153385;-56
2022/09/21 09:19:58;;;;;;;;;;;;;;;21.76;55.06;102429.50;7284365;19;153128;-55
2022/09/21 09:22:28;;;;;;;;;;;;;;;21.75;54.83;102422.19;7283972;19;152736;-56
2022/09/21 09:25:01;;;;;;;;;;;;;;;21.74;55.16;102420.50;7284465;19;154437;-56
2022/09/21 09:27:32;;;;;;;;;;;;;;;21.75;54.98;102430.66;7282937;19;154518;-55
2022/09/21 09:30:02;;;;;;;;;;;;;;;21.74;54.99;102426.97;7280102;19;153752;-57
2022/09/21 09:32:41;;;;;;;;;;;;;;;21.73;55.37;102421.63;7279314;19;152918;-57
2022/09/21 09:35:17;;;;;;;;;;;;;;;21.70;55.10;102425.84;7283719;19;153230;-57
2022/09/21 09:37:44;;;;;;;;;;;;;;;21.71;55.23;102423.88;7292658;19;153804;-57
2022/09/21 09:40:13;;;;;;;;;;;;;;;21.71;55.47;102423.88;7280513;19;152066;-57
2022/09/21 09:42:43;;;;;;;;;;;;;;;21.71;55.01;102432.34;7280804;19;152349;-57
2022/09/21 09:45:11;;;;;;;;;;;;;;;21.70;55.05;102427.81;7281024;19;152228;-58
2022/09/21 09:47:50;;;;;;;;;;;;;;;21.70;55.19;102427.81;7283137;19;153566;-57
2022/09/21 09:50:24;;;;;;;;;;;;;;;21.68;55.37;102430.91;7281850;19;153466;-58
2022/09/21 09:52:53;;;;;;;;;;;;;;;21.68;55.49;102424.44;7279898;19;152106;-57
2022/09/21 09:55:24;;;;;;;;;;;;;;;21.69;54.92;102426.97;7287205;19;154148;-56
2022/09/21 09:57:53;;;;;;;;;;;;;;;21.70;54.81;102425.84;7286549;19;152237;-56
2022/09/21 10:00:21;;;;;;;;;;;;;;;21.70;55.31;102425.84;7292403;19;151949;-56
2022/09/21 10:02:58;;;;;;;;;;;;;;;21.69;55.17;102421.34;7286708;19;153674;-57
2022/09/21 10:05:37;;;;;;;;;;;;;;;21.69;55.06;102415.72;7290096;19;151754;-57
2022/09/21 10:08:04;;;;;;;;;;;;;;;21.68;55.05;102419.66;7288868;19;154087;-56
2022/09/21 10:10:33;;;;;;;;;;;;;;;21.67;55.49;102423.59;7287827;19;152634;-61
2022/09/21 10:13:03;;;;;;;;;;;;;;;24.24;49.13;102414.31;7287921;19;152379;-56
2022/09/21 10:15:29;;;;;;;;;;;;;;;25.64;45.31;102415.59;7284099;19;152362;-56
2022/09/21 10:18:00;;;;;;;;;;;;;;;25.40;45.38;102412.00;7262298;19;153659;-57
2022/09/21 10:20:29;;;;;;;;;;;;;;;25.86;44.96;102412.13;7281769;19;154443;-57
2022/09/21 10:22:58;;;;;;;;;;;;;;;26.26;43.52;102416.25;7286785;19;154162;-56
2022/09/21 10:25:25;;;;;;;;;;;;;;;26.29;43.38;102409.97;7277375;19;152153;-56
2022/09/21 10:27:54;;;;;;;;;;;;;;;26.70;42.61;102416.50;7273121;19;153348;-58
2022/09/21 10:30:31;;;;;;;;;;;;;;;27.01;42.00;102413.06;7272253;19;153380;-57
2022/09/21 10:32:58;;;;;;;;;;;;;;;27.04;42.41;102407.56;7258040;19;154547;-57
2022/09/21 10:35:25;;;;;;;;;;;;;;;27.26;41.24;102404.78;7274753;19;152163;-57
2022/09/21 10:38:02;;;;;;;;;;;;;;;27.19;41.16;102395.03;7272426;19;153015;-57
2022/09/21 10:40:35;;;;;;;;;;;;;;;27.21;41.29;102407.75;7276113;19;153152;-57
2022/09/21 10:43:03;;;;;;;;;;;;;;;26.78;42.29;102400.75;7279985;19;152951;-57
2022/09/21 10:45:33;;;;;;;;;;;;;;;27.32;41.48;102395.00;7272344;19;153097;-57
2022/09/21 10:48:10;;;;;;;;;;;;;;;27.61;40.65;102397.47;7278088;19;153731;-57
2022/09/21 10:50:40;;;;;;;;;;;;;;;27.47;41.00;102405.16;7287024;19;153636;-57
2022/09/21 10:53:08;;;;;;;;;;;;;;;27.60;40.75;102401.47;7285040;19;152023;-57
2022/09/21 10:55:37;;;;;;;;;;;;;;;27.55;41.02;102401.59;7287288;19;152815;-58
2022/09/21 10:58:18;;;;;;;;;;;;;;;27.85;39.74;102397.97;7286969;19;154435;-58
2022/09/21 11:00:47;;;;;;;;;;;;;;;27.87;40.11;102400.50;7282271;19;152861;-58
2022/09/21 11:03:23;;;;;;;;;;;;;;;27.94;39.87;102406.53;7285769;19;152687;-59
2022/09/21 11:05:51;;;;;;;;;;;;;;;27.86;39.51;102402.50;7291502;19;152864;-58
2022/09/21 11:08:22;;;;;;;;;;;;;;;27.67;40.28;102404.69;7286916;19;152796;-58
2022/09/21 11:10:54;;;;;;;;;;;;;;;28.05;39.84;102399.44;7285144;19;153963;-58
2022/09/21 11:13:20;;;;;;;;;;;;;;;28.57;38.53;102400.56;7286094;19;151800;-58
2022/09/21 11:15:54;;;;;;;;;;;;;;;28.50;38.59;102405.91;7283502;19;152355;-58
2022/09/21 11:18:29;;;;;;;;;;;;;;;28.09;39.03;102399.63;7285846;19;155090;-58
2022/09/21 11:20:58;;;;;;;;;;;;;;;28.18;38.83;102401.38;7284550;19;152077;-60
2022/09/21 11:23:35;;;;;;;;;;;;;;;26.50;42.38;102391.41;7286801;19;152534;-58
2022/09/21 11:26:11;;;;;;;;;;;;;;;25.68;44.71;102386.38;7285096;19;152138;-58
2022/09/21 11:28:39;;;;;;;;;;;;;;;25.22;46.22;102391.88;7293764;19;152545;-58
2022/09/21 11:31:09;;;;;;;;;;;;;;;24.95;46.92;102388.88;7230473;19;154848;-58
2022/09/21 11:33:40;;;;;;;;;;;;;;;24.69;47.42;102394.00;7266764;19;152430;-58
2022/09/21 11:36:07;;;;;;;;;;;;;;;24.48;47.87;102395.41;7273578;19;153483;-58
2022/09/21 11:38:34;;;;;;;;;;;;;;;24.34;48.75;102394.44;7273716;19;155438;-58
2022/09/21 11:41:13;;;;;;;;;;;;;;;24.24;48.90;102389.72;7271903;19;152056;-58
2022/09/21 11:43:48;;;;;;;;;;;;;;;24.12;49.33;102385.59;7273698;19;153715;-58
2022/09/21 11:46:28;;;;;;;;;;;;;;;23.94;49.51;102384.34;7267398;19;154204;-58
2022/09/21 11:49:05;;;;;;;;;;;;;;;23.82;49.91;102378.25;7272771;19;152719;-58
2022/09/21 11:51:41;;;;;;;;;;;;;;;23.72;49.83;102369.88;7279138;19;153365;-58
2022/09/21 11:54:19;;;;;;;;;;;;;;;23.62;50.15;102373.63;7274698;19;152272;-58
2022/09/21 11:56:46;;;;;;;;;;;;;;;23.54;50.72;102373.41;7272162;19;154135;-58
2022/09/21 11:59:13;;;;;;;;;;;;;;;23.44;50.75;102360.22;7272560;19;153565;-58
2022/09/21 12:01:57;;;;;;;;;;;;;;;23.38;51.14;102367.88;7268741;19;152545;-58
2022/09/21 12:04:35;;;;;;;;;;;;;;;23.31;51.30;102360.84;7273882;19;154893;-58
2022/09/21 12:07:16;;;;;;;;;;;;;;;23.24;51.45;102361.19;7274955;19;153942;-58
2022/09/21 12:12:12;;;;;;;;;;;;;;;23.11;51.78;102356.22;7275111;19;152458;-58
2022/09/21 12:14:43;;;;;;;;;;;;;;;23.04;51.79;102358.50;7280901;19;157313;-58
2022/09/21 12:17:17;;;;;;;;;;;;;;;23.02;52.00;102357.97;7270648;19;152694;-58
2022/09/21 12:19:49;;;;;;;;;;;;;;;22.97;51.83;102355.19;7274966;19;155211;-58
2022/09/21 12:22:20;;;;;;;;;;;;;;;22.92;52.24;102349.56;7275720;19;152467;-58
2022/09/21 12:24:53;;;;;;;;;;;;;;;22.87;52.18;102349.59;7273322;19;152768;-58
2022/09/21 12:27:26;;;;;;;;;;;;;;;22.84;52.57;102341.72;7270122;19;152985;-58
2022/09/21 12:29:56;;;;;;;;;;;;;;;22.78;52.74;102343.72;7274905;19;154728;-58
2022/09/21 12:32:32;;;;;;;;;;;;;;;22.76;52.71;102337.50;7273499;19;152749;-58
2022/09/21 12:35:04;;;;;;;;;;;;;;;22.73;52.68;102335.28;7270600;19;153912;-58
2022/09/21 12:37:35;;;;;;;;;;;;;;;22.70;52.68;102335.03;7275119;19;152876;-58
2022/09/21 12:40:11;;;;;;;;;;;;;;;22.65;53.26;102333.06;7272036;19;153134;-58
2022/09/21 12:42:49;;;;;;;;;;;;;;;22.63;53.04;102327.69;7275875;19;156292;-58
2022/09/21 12:45:26;;;;;;;;;;;;;;;22.60;53.00;102331.09;7273155;19;152634;-58
2022/09/21 12:47:58;;;;;;;;;;;;;;;22.57;53.35;102320.41;7273525;19;153927;-58
2022/09/21 12:50:26;;;;;;;;;;;;;;;22.55;53.48;102322.66;7272877;19;153083;-58
2022/09/21 12:52:54;;;;;;;;;;;;;;;22.55;53.22;102322.66;7273171;19;152955;-57
2022/09/21 12:55:31;;;;;;;;;;;;;;;22.52;53.64;102313.97;7273007;19;154598;-58
2022/09/21 12:57:59;;;;;;;;;;;;;;;22.48;53.73;102308.06;7282002;19;152907;-58
2022/09/21 13:00:51;;;;;;;;;;;;;;;22.48;53.72;102302.44;7271030;19;152365;-58